Modling, Austria
Current Conditions -  °F | °C
As of 10:50 PM on Saturday 20 Dec 2014 (Local Time) from LOWW Reporting Station
Rain Showers Rain Showers  
Wind Chill: 37°   Ceiling: 4500
Heat Index: 46°   Visibility: 6mi
Dew Point: 32°   Wind: 32mph
Humidity: 57%   Direction: 280°W
Pressure: 30.06"   Gusts: 46mph
Location:  48.09°N, 16.28°E
Report Text: LOWW 202050Z 28028G40KT 9999 -SHRA FEW035 BKN045 08/00 Q1018 NOSIG
Loading
Personal Weather Stations






























Interactive Weather Map New forecast layout! Learn more

10-Day Weather Forecast

Advertisements
Track Severe Weather on mobile